createdAt,value
2023-03-24T00:01:05.687Z,98116.03
2023-03-24T00:03:32.963Z,98119.44
2023-03-24T00:06:02.444Z,98117.16
2023-03-24T00:08:30.721Z,98112.59
2023-03-24T00:11:03.275Z,98106.03
2023-03-24T00:13:32.147Z,98099.53
2023-03-24T00:15:59.442Z,98094.78
2023-03-24T00:18:26.088Z,98092.09
2023-03-24T00:20:58.643Z,98087.47
2023-03-24T00:23:27.981Z,98089.75
2023-03-24T00:26:12.302Z,98089.19
2023-03-24T00:28:39.101Z,98097.75
2023-03-24T00:31:08.667Z,98101.84
2023-03-24T00:33:36.576Z,98102.28
2023-03-24T00:36:06.864Z,98099.63
2023-03-24T00:38:34.548Z,98099.09
2023-03-24T00:41:02.100Z,98077.72
2023-03-24T00:43:29.825Z,98080.25
2023-03-24T00:46:01.888Z,98084.88
2023-03-24T00:48:29.770Z,98075.50
2023-03-24T00:50:56.966Z,98072.22
2023-03-24T00:53:25.824Z,98066.59
2023-03-24T00:55:52.388Z,98071.91
2023-03-24T00:58:19.764Z,98070.59
2023-03-24T01:00:48.393Z,98067.72
2023-03-24T01:03:16.585Z,98058.59
2023-03-24T01:05:48.254Z,98055.34
2023-03-24T01:08:20.364Z,98048.31
2023-03-24T01:10:50.523Z,98044.09
2023-03-24T01:13:18.135Z,98041.06
2023-03-24T01:15:47.763Z,98037.56
2023-03-24T01:18:15.285Z,98029.44
2023-03-24T01:20:45.702Z,98018.25
2023-03-24T01:23:14.954Z,98014.47
2023-03-24T01:25:45.328Z,98000.69
2023-03-24T01:28:12.985Z,97994.84
2023-03-24T01:30:40.477Z,97993.06
2023-03-24T01:33:08.551Z,97983.16
2023-03-24T01:35:35.387Z,97978.72
2023-03-24T01:38:07.286Z,97971.88
2023-03-24T01:40:36.329Z,97974.78
2023-03-24T01:43:04.552Z,97965.56
2023-03-24T01:45:40.481Z,97968.31
2023-03-24T01:48:28.422Z,97955.22
2023-03-24T01:51:21.354Z,97959.53
2023-03-24T01:53:52.311Z,97963.13
2023-03-24T01:56:19.555Z,97956.38
2023-03-24T01:58:52.206Z,97950.97
2023-03-24T02:01:30.025Z,97946.69
2023-03-24T02:04:11.283Z,97946.00
2023-03-24T02:06:43.822Z,97931.84
2023-03-24T02:09:12.721Z,97931.41
2023-03-24T02:11:41.145Z,97926.69
2023-03-24T02:14:09.407Z,97923.84
2023-03-24T02:17:08.584Z,97924.66
2023-03-24T02:20:05.851Z,97913.31
2023-03-24T02:23:29.911Z,97922.03
2023-03-24T02:26:24.212Z,97917.09
2023-03-24T02:29:07.356Z,97915.38
2023-03-24T02:31:46.478Z,97911.94
2023-03-24T02:34:33.332Z,97916.16
2023-03-24T02:37:27.672Z,97902.47
2023-03-24T02:40:03.226Z,97911.25
2023-03-24T02:42:41.881Z,97910.97
2023-03-24T02:45:36.297Z,97898.97
2023-03-24T02:48:03.032Z,97897.69
2023-03-24T02:50:53.657Z,97897.53
2023-03-24T02:53:54.006Z,97889.63
2023-03-24T02:56:43.703Z,97881.41
2023-03-24T02:59:43.793Z,97883.06
2023-03-24T03:02:44.670Z,97873.41
2023-03-24T03:05:30.837Z,97866.97
2023-03-24T03:08:01.411Z,97864.75
2023-03-24T03:10:34.251Z,97861.19
2023-03-24T03:13:07.168Z,97864.03
2023-03-24T03:15:42.888Z,97862.97
2023-03-24T03:18:18.718Z,97854.44
2023-03-24T03:20:53.187Z,97862.13
2023-03-24T03:23:29.186Z,97843.69
2023-03-24T03:26:05.957Z,97836.81
2023-03-24T03:28:36.778Z,97834.72
2023-03-24T03:31:08.628Z,97836.94
2023-03-24T03:33:53.140Z,97838.13
2023-03-24T03:36:29.391Z,97841.06
2023-03-24T03:39:08.113Z,97845.06
2023-03-24T03:41:34.812Z,97846.75
2023-03-24T03:44:01.645Z,97853.69
2023-03-24T03:46:28.642Z,97849.16
2023-03-24T03:48:56.565Z,97833.47
2023-03-24T03:51:23.348Z,97831.28
2023-03-24T03:53:58.940Z,97824.19
2023-03-24T03:56:33.736Z,97819.31
2023-03-24T03:59:30.338Z,97815.06
2023-03-24T04:01:58.815Z,97823.41
2023-03-24T04:05:05.879Z,97815.72
2023-03-24T04:08:18.148Z,97806.06
2023-03-24T04:11:26.333Z,97819.28
2023-03-24T04:14:57.526Z,97820.50
2023-03-24T04:17:36.099Z,97824.16
2023-03-24T04:20:12.476Z,97827.00
2023-03-24T04:22:49.795Z,97830.31
2023-03-24T04:25:49.766Z,97828.75
2023-03-24T04:28:52.524Z,97833.56
2023-03-24T04:31:41.948Z,97830.63
2023-03-24T04:34:20.763Z,97842.72
2023-03-24T04:37:04.085Z,97841.72
2023-03-24T04:39:53.905Z,97854.03
2023-03-24T04:42:26.547Z,97854.56
2023-03-24T04:44:53.423Z,97855.41
2023-03-24T04:47:26.780Z,97847.38
2023-03-24T04:50:09.269Z,97852.31
2023-03-24T04:52:35.990Z,97845.41
2023-03-24T04:55:16.022Z,97839.31
2023-03-24T04:57:43.247Z,97858.00
2023-03-24T05:00:12.933Z,97858.53
2023-03-24T05:02:40.631Z,97862.13
2023-03-24T05:05:14.560Z,97858.38
2023-03-24T05:07:47.224Z,97851.19
2023-03-24T05:10:16.840Z,97867.97
2023-03-24T05:12:49.601Z,97865.78
2023-03-24T05:15:35.401Z,97875.50
2023-03-24T05:18:19.942Z,97868.44
2023-03-24T05:20:46.648Z,97875.69
2023-03-24T05:23:19.419Z,97868.56
2023-03-24T05:25:48.246Z,97864.88
2023-03-24T05:28:16.370Z,97864.88
2023-03-24T05:30:44.032Z,97858.38
2023-03-24T05:33:36.557Z,97872.81
2023-03-24T05:36:04.188Z,97849.31
2023-03-24T05:38:32.932Z,97849.16
2023-03-24T05:41:01.328Z,97857.06
2023-03-24T05:43:34.071Z,97855.69
2023-03-24T05:46:10.405Z,97855.84
2023-03-24T05:48:37.439Z,97868.63
2023-03-24T05:51:10.975Z,97871.06
2023-03-24T05:53:38.192Z,97862.25
2023-03-24T05:56:25.075Z,97883.69
2023-03-24T05:59:08.370Z,97880.38
2023-03-24T06:01:58.414Z,97880.81
2023-03-24T06:04:57.779Z,97888.16
2023-03-24T06:07:26.793Z,97895.81
2023-03-24T06:09:58.123Z,97904.69
2023-03-24T06:12:25.452Z,97906.41
2023-03-24T06:14:57.019Z,97898.59
2023-03-24T06:17:24.749Z,97900.97
2023-03-24T06:20:02.708Z,97913.09
2023-03-24T06:22:42.602Z,97907.47
2023-03-24T06:25:13.936Z,97900.13
2023-03-24T06:27:48.918Z,97912.19
2023-03-24T06:30:20.570Z,97918.63
2023-03-24T06:32:47.274Z,97904.88
2023-03-24T06:35:17.229Z,97901.94
2023-03-24T06:38:03.072Z,97911.25
2023-03-24T06:40:31.182Z,97904.69
2023-03-24T06:42:58.617Z,97907.00
2023-03-24T06:45:26.195Z,97902.75
2023-03-24T06:47:57.262Z,97913.66
2023-03-24T06:50:26.992Z,97911.03
2023-03-24T06:52:55.269Z,97918.94
2023-03-24T06:55:22.781Z,97907.16
2023-03-24T06:57:52.092Z,97898.00
2023-03-24T11:31:59.429Z,98105.59
2023-03-24T11:34:34.452Z,98103.41
2023-03-24T11:37:23.032Z,98104.72
2023-03-24T11:40:25.880Z,98101.16
2023-03-24T11:43:00.077Z,98101.22
2023-03-24T11:45:28.539Z,98088.84
2023-03-24T11:47:59.589Z,98099.25
2023-03-24T11:50:34.438Z,98108.00
2023-03-24T11:53:07.710Z,98109.16
2023-03-24T11:55:57.333Z,98131.53
2023-03-24T11:58:35.495Z,98099.47
2023-03-24T12:01:20.594Z,98090.50
2023-03-24T12:04:07.711Z,98086.22
2023-03-24T12:06:52.457Z,98082.81
2023-03-24T12:09:32.614Z,98095.38
2023-03-24T12:12:17.417Z,98095.41
2023-03-24T12:15:06.435Z,98084.88
2023-03-24T12:17:41.685Z,98076.63
2023-03-24T12:20:22.731Z,98080.34
2023-03-24T12:23:06.292Z,98072.28
2023-03-24T12:25:51.753Z,98067.50
2023-03-24T12:28:24.431Z,98063.09
2023-03-24T12:31:38.875Z,98057.69
2023-03-24T12:34:52.787Z,98067.22
2023-03-24T12:37:39.104Z,98052.84
2023-03-24T12:40:12.935Z,98054.25
2023-03-24T12:42:55.178Z,98066.88
2023-03-24T12:45:29.127Z,98056.75
2023-03-24T12:48:34.383Z,98062.41
2023-03-24T12:51:24.992Z,98065.28
2023-03-24T12:54:29.986Z,98074.59
2023-03-24T12:57:14.405Z,98069.09
2023-03-24T12:59:57.321Z,98088.69
2023-03-24T13:02:38.869Z,98080.44
2023-03-24T13:05:08.956Z,98089.88
2023-03-24T13:07:43.735Z,98083.75
2023-03-24T13:10:22.959Z,98081.53
2023-03-24T13:13:22.428Z,98076.09
2023-03-24T13:16:01.259Z,98074.66
2023-03-24T13:18:51.554Z,98070.97
2023-03-24T13:21:20.814Z,98058.56
2023-03-24T13:24:08.012Z,98056.47
2023-03-24T13:27:09.475Z,98048.16
2023-03-24T13:29:48.948Z,98040.88
2023-03-24T13:32:25.605Z,98045.50
2023-03-24T13:35:04.406Z,98052.50
2023-03-24T13:37:53.656Z,98044.09
2023-03-24T13:40:26.896Z,98048.13
2023-03-24T13:43:07.664Z,98031.56
2023-03-24T13:46:06.339Z,98033.47
2023-03-24T13:48:51.392Z,98034.03
2023-03-24T13:51:27.636Z,98037.84
2023-03-24T13:53:59.963Z,98036.56
2023-03-24T13:56:37.157Z,98037.56
2023-03-24T13:59:11.955Z,98037.72
2023-03-24T14:01:49.735Z,98029.38
2023-03-24T14:04:25.474Z,98029.66
2023-03-24T14:06:55.673Z,98033.38
2023-03-24T14:09:28.178Z,98029.16
2023-03-24T14:11:55.014Z,98030.56
2023-03-24T14:14:24.618Z,98027.13
2023-03-24T14:17:13.590Z,98022.50
2023-03-24T14:20:07.871Z,98005.97
2023-03-24T14:22:39.681Z,98001.44
2023-03-24T14:25:22.031Z,98007.03
2023-03-24T14:27:51.401Z,98018.72
2023-03-24T14:30:21.620Z,98024.22
2023-03-24T14:33:00.466Z,98025.94
2023-03-24T14:35:32.125Z,98017.75
2023-03-24T14:38:23.971Z,98024.06
2023-03-24T14:40:56.483Z,98013.19
2023-03-24T14:43:49.888Z,98020.03
2023-03-24T14:46:19.457Z,98015.22
2023-03-24T14:49:04.205Z,98004.66
2023-03-24T14:51:39.919Z,98002.00
2023-03-24T14:54:36.938Z,98011.78
2023-03-24T14:57:04.971Z,98005.19
2023-03-24T14:59:49.952Z,98004.13
2023-03-24T15:02:25.534Z,98008.66
2023-03-24T15:05:29.679Z,98004.44
2023-03-24T15:08:10.524Z,97999.69
2023-03-24T15:10:50.952Z,98010.47
2023-03-24T15:13:48.649Z,98015.63
2023-03-24T15:16:15.414Z,98018.88
2023-03-24T15:19:00.675Z,98011.25
2023-03-24T15:21:42.087Z,98007.06
2023-03-24T15:24:20.982Z,98004.50
2023-03-24T15:26:48.943Z,97997.13
2023-03-24T15:29:15.591Z,97995.41
2023-03-24T15:31:42.677Z,97998.91
2023-03-24T15:34:40.069Z,97991.38
2023-03-24T15:37:20.695Z,97987.63
2023-03-24T15:39:53.871Z,97998.75
2023-03-24T15:42:25.477Z,97999.16
2023-03-24T15:44:54.018Z,97999.16
2023-03-24T15:47:24.747Z,97999.13
2023-03-24T15:50:02.782Z,97993.06
2023-03-24T15:52:39.607Z,97995.88
2023-03-24T15:55:26.223Z,97994.13
2023-03-24T15:57:56.215Z,97997.78
2023-03-24T16:00:29.054Z,97980.97
2023-03-24T16:02:57.969Z,97983.19
2023-03-24T16:05:32.431Z,97987.38
2023-03-24T16:08:06.231Z,97995.28
2023-03-24T16:10:39.859Z,97986.81
2023-03-24T16:13:21.456Z,97985.50
2023-03-24T16:16:01.151Z,97986.19
2023-03-24T16:18:36.264Z,97980.75
2023-03-24T16:21:18.129Z,97975.91
2023-03-24T16:23:45.527Z,97981.69
2023-03-24T16:26:24.280Z,97981.19
2023-03-24T16:28:52.234Z,97980.25
2023-03-24T16:31:25.111Z,97986.28
2023-03-24T16:33:52.701Z,97986.34
2023-03-24T16:36:22.216Z,97992.25
2023-03-24T16:38:53.679Z,97989.09
2023-03-24T16:41:20.892Z,97988.22
2023-03-24T16:43:47.679Z,97990.13
2023-03-24T16:46:26.532Z,97998.84
2023-03-24T16:48:53.715Z,98001.31
2023-03-24T16:51:20.335Z,97999.94
2023-03-24T16:53:47.297Z,98002.47
2023-03-24T16:56:16.756Z,98006.56
2023-03-24T16:58:43.530Z,98003.50
2023-03-24T17:01:27.700Z,97999.63
2023-03-24T17:03:55.796Z,98007.06
2023-03-24T17:06:23.437Z,98009.22
2023-03-24T17:08:50.228Z,98007.69
2023-03-24T17:11:24.016Z,98003.38
2023-03-24T17:13:51.323Z,98000.50
2023-03-24T17:16:17.912Z,98005.91
2023-03-24T17:18:44.560Z,98004.50
2023-03-24T17:21:16.601Z,98001.28
2023-03-24T17:23:46.729Z,98013.34
2023-03-24T17:26:13.321Z,98012.78
2023-03-24T17:28:40.235Z,98013.69
2023-03-24T17:31:06.988Z,98003.34
2023-03-24T17:33:33.668Z,98003.75
2023-03-24T17:36:00.825Z,98010.06
2023-03-24T17:38:27.855Z,98009.03
2023-03-24T17:41:03.161Z,98015.22
2023-03-24T17:43:30.447Z,98018.88
2023-03-24T17:46:01.511Z,98022.25
2023-03-24T17:48:29.091Z,98017.94
2023-03-24T17:50:56.965Z,98021.97
2023-03-24T17:53:32.052Z,98020.34
2023-03-24T17:56:02.158Z,98021.19
2023-03-24T17:58:29.309Z,98019.91
2023-03-24T18:01:08.516Z,98027.31
2023-03-24T18:03:37.872Z,98034.41
2023-03-24T18:06:10.412Z,98020.25
2023-03-24T18:08:38.435Z,98025.81
2023-03-24T18:11:10.947Z,98028.22
2023-03-24T18:14:02.434Z,98031.72
2023-03-24T18:16:35.085Z,98026.66
2023-03-24T18:19:02.445Z,98034.53
2023-03-24T18:21:29.184Z,98031.50
2023-03-24T18:23:56.256Z,98033.47
2023-03-24T18:26:23.317Z,98043.91
2023-03-24T18:28:49.914Z,98043.88
2023-03-24T18:31:20.108Z,98044.06
2023-03-24T18:33:48.396Z,98050.22
2023-03-24T18:36:26.262Z,98041.16
2023-03-24T18:39:04.280Z,98041.50
2023-03-24T18:41:30.943Z,98039.19
2023-03-24T18:43:59.349Z,98043.28
2023-03-24T18:46:27.192Z,98054.56
2023-03-24T18:48:54.742Z,98054.28
2023-03-24T18:51:22.751Z,98051.34
2023-03-24T18:53:50.032Z,98057.63
2023-03-24T18:56:18.789Z,98065.97
2023-03-24T19:03:41.213Z,98067.41
2023-03-24T19:09:59.818Z,98082.13
2023-03-24T19:12:26.444Z,98076.78
2023-03-24T19:15:01.603Z,98095.78
2023-03-24T19:17:28.642Z,98098.28
2023-03-24T19:19:59.199Z,98105.94
2023-03-24T19:22:28.809Z,98094.09
2023-03-24T19:24:55.953Z,98102.72
2023-03-24T19:27:23.476Z,98100.31
2023-03-24T19:30:29.542Z,98104.34
2023-03-24T19:32:57.118Z,98109.06
2023-03-24T19:35:30.380Z,98109.25
2023-03-24T19:37:57.242Z,98106.81
2023-03-24T19:40:23.841Z,98113.91
2023-03-24T19:42:51.931Z,98115.47
2023-03-24T19:45:20.204Z,98106.81
2023-03-24T19:47:47.073Z,98110.47
2023-03-24T19:50:22.520Z,98108.34
2023-03-24T19:52:55.619Z,98105.88
2023-03-24T19:55:31.554Z,98115.75
2023-03-24T19:57:59.607Z,98106.41
2023-03-24T20:00:36.253Z,98113.19
2023-03-24T20:03:06.435Z,98114.06
2023-03-24T20:05:34.621Z,98110.56
2023-03-24T20:08:05.024Z,98109.09
2023-03-24T20:10:40.166Z,98115.06
2023-03-24T20:13:08.285Z,98132.81
2023-03-24T20:15:37.420Z,98151.13
2023-03-24T20:18:07.321Z,98139.31
2023-03-24T20:20:37.014Z,98154.88
2023-03-24T20:23:03.792Z,98156.72
2023-03-24T20:25:30.885Z,98158.06
2023-03-24T20:27:57.648Z,98159.53
2023-03-24T20:30:28.769Z,98158.84
2023-03-24T20:32:56.822Z,98160.53
2023-03-24T20:35:25.831Z,98164.28
2023-03-24T20:37:52.986Z,98169.44
2023-03-24T20:40:20.808Z,98156.91
2023-03-24T20:42:47.649Z,98164.00
2023-03-24T20:45:34.175Z,98167.25
2023-03-24T20:48:00.978Z,98167.81
2023-03-24T20:50:27.766Z,98163.72
2023-03-24T20:52:54.571Z,98160.44
2023-03-24T20:55:21.653Z,98155.72
2023-03-24T20:57:48.429Z,98147.75
2023-03-24T21:00:15.709Z,98150.38
2023-03-24T21:02:43.412Z,98141.81
2023-03-24T21:05:10.562Z,98138.50
2023-03-24T21:07:38.268Z,98126.97
2023-03-24T21:10:06.542Z,98126.72
2023-03-24T21:12:34.152Z,98122.03
2023-03-24T21:15:01.411Z,98124.00
2023-03-24T21:17:34.225Z,98110.72
2023-03-24T21:20:10.179Z,98114.94
2023-03-24T21:23:06.137Z,98112.34
2023-03-24T21:25:33.551Z,98101.59
2023-03-24T21:28:00.158Z,98114.13
2023-03-24T21:30:28.093Z,98104.25
2023-03-24T21:32:56.267Z,98110.44
2023-03-24T21:35:23.628Z,98110.22
2023-03-24T21:37:50.200Z,98108.09
2023-03-24T21:40:19.123Z,98117.06
2023-03-24T21:42:46.761Z,98115.75
2023-03-24T21:45:16.937Z,98105.13
2023-03-24T21:47:46.199Z,98117.69
2023-03-24T21:50:18.811Z,98117.00
2023-03-24T21:52:47.617Z,98116.97
2023-03-24T21:55:15.862Z,98113.53
2023-03-24T21:57:46.305Z,98109.38
2023-03-24T22:00:15.676Z,98113.13
2023-03-24T22:02:45.636Z,98110.13
2023-03-24T22:05:13.951Z,98108.63
2023-03-24T22:07:41.624Z,98106.09
2023-03-24T22:10:10.614Z,98115.06
2023-03-24T22:12:37.216Z,98124.34
2023-03-24T22:15:04.110Z,98120.69
2023-03-24T22:17:31.151Z,98133.22
2023-03-24T22:19:57.934Z,98124.69
2023-03-24T22:22:24.516Z,98116.25
2023-03-24T22:24:51.254Z,98125.22
2023-03-24T22:27:17.836Z,98136.47
2023-03-24T22:29:44.564Z,98143.16
2023-03-24T22:32:11.124Z,98144.22
2023-03-24T22:34:37.787Z,98134.63
2023-03-24T22:37:04.606Z,98143.72
2023-03-24T22:39:31.873Z,98147.03
2023-03-24T22:41:58.612Z,98152.16
2023-03-24T22:44:25.307Z,98168.53
2023-03-24T22:46:51.861Z,98161.13
2023-03-24T22:49:18.511Z,98166.75
2023-03-24T22:51:45.289Z,98155.34
2023-03-24T22:54:11.868Z,98160.53
2023-03-24T22:56:38.531Z,98172.38
2023-03-24T22:59:07.115Z,98175.72
2023-03-24T23:01:33.826Z,98180.78
2023-03-24T23:04:00.675Z,98178.75
2023-03-24T23:06:28.268Z,98178.41
2023-03-24T23:08:55.799Z,98181.50
2023-03-24T23:11:22.809Z,98166.28
2023-03-24T23:13:50.390Z,98171.25
2023-03-24T23:16:17.525Z,98162.41
2023-03-24T23:18:44.603Z,98165.94
2023-03-24T23:21:13.880Z,98159.38
2023-03-24T23:23:41.382Z,98159.72
2023-03-24T23:26:25.421Z,98168.63
2023-03-24T23:28:53.350Z,98156.56
2023-03-24T23:31:24.536Z,98156.22
2023-03-24T23:33:54.461Z,98154.09
2023-03-24T23:36:21.054Z,98150.56
2023-03-24T23:38:50.558Z,98142.69
2023-03-24T23:41:19.204Z,98146.56
2023-03-24T23:43:50.941Z,98157.88
2023-03-24T23:46:18.828Z,98165.34
2023-03-24T23:48:45.830Z,98151.22
2023-03-24T23:51:12.567Z,98159.63
2023-03-24T23:53:39.290Z,98152.66
2023-03-24T23:56:08.012Z,98163.56
2023-03-24T23:58:37.405Z,98164.34
